Time;durP1;ratioP1;P1;durP2;ratioP2;P2;SDS_P1;SDS_P2;PMS_P1;PMS_P2;Temp;Humidity;BMP_temperature;BMP_pressure;BME280_temperature;BME280_humidity;BME280_pressure;Samples;Min_cycle;Max_cycle;Signal;HPM_P1;HPM_P2
2023/03/22 00:02:24;;;;;;;;;;;10.50;99.90;;;;;;5073515;28;19967;-58
2023/03/22 00:04:50;;;;;;;;;;;10.50;99.90;;;;;;5073168;28;19924;-57
2023/03/22 00:07:15;;;;;;;;;;;10.50;99.90;;;;;;5073830;28;19913;-58
2023/03/22 00:09:41;;;;;;;;;;;10.50;99.90;;;;;;5073866;28;20071;-57
2023/03/22 00:12:06;;;;;;;;;;;10.50;99.90;;;;;;5073101;28;19908;-58
2023/03/22 00:14:32;;;;;;;;;;;10.60;99.90;;;;;;5073448;28;20417;-57
2023/03/22 00:16:57;;;;;;;;;;;10.50;99.90;;;;;;5073629;28;19908;-57
2023/03/22 00:19:23;;;;;;;;;;;10.60;99.90;;;;;;5072926;28;19908;-57
2023/03/22 00:21:50;;;;;;;;;;;10.50;99.90;;;;;;5073472;28;20379;-57
2023/03/22 00:24:15;;;;;;;;;;;10.60;99.90;;;;;;5074690;28;20394;-57
2023/03/22 00:26:41;;;;;;;;;;;10.60;99.90;;;;;;5092684;28;19912;-58
2023/03/22 00:29:06;;;;;;;;;;;10.60;99.90;;;;;;5093510;28;19912;-59
2023/03/22 00:31:32;;;;;;;;;;;10.50;99.90;;;;;;5092854;28;19908;-58
2023/03/22 00:33:57;;;;;;;;;;;10.50;99.90;;;;;;5093560;28;19912;-58
2023/03/22 00:36:23;;;;;;;;;;;10.50;99.90;;;;;;5093714;28;20369;-56
2023/03/22 00:38:48;;;;;;;;;;;10.40;99.90;;;;;;5092799;28;19959;-57
2023/03/22 00:41:15;;;;;;;;;;;10.40;99.90;;;;;;5093542;28;19922;-57
2023/03/22 00:43:40;;;;;;;;;;;10.40;99.90;;;;;;5093430;28;19908;-58
2023/03/22 00:46:06;;;;;;;;;;;10.40;99.90;;;;;;5092646;28;20266;-58
2023/03/22 00:48:32;;;;;;;;;;;10.30;99.90;;;;;;5093464;28;20409;-57
2023/03/22 00:50:57;;;;;;;;;;;10.30;99.90;;;;;;5093378;28;20397;-58
2023/03/22 00:53:23;;;;;;;;;;;10.40;99.90;;;;;;5092556;28;19908;-57
2023/03/22 00:55:49;;;;;;;;;;;10.30;99.90;;;;;;5092948;28;19912;-57
2023/03/22 00:58:14;;;;;;;;;;;10.30;99.90;;;;;;5075209;28;19977;-57
2023/03/22 01:00:40;;;;;;;;;;;10.30;99.90;;;;;;5092333;28;19915;-58
2023/03/22 01:03:05;;;;;;;;;;;10.20;99.90;;;;;;5092858;28;19933;-56
2023/03/22 01:05:32;;;;;;;;;;;10.30;99.90;;;;;;5085115;28;19957;-57
2023/03/22 01:08:01;;;;;;;;;;;10.30;99.90;;;;;;5082854;28;20301;-57
2023/03/22 01:10:27;;;;;;;;;;;10.20;99.90;;;;;;5073564;28;19915;-58
2023/03/22 01:12:55;;;;;;;;;;;10.20;99.90;;;;;;5092606;28;19918;-56
2023/03/22 01:15:22;;;;;;;;;;;10.20;99.90;;;;;;5090230;28;19908;-57
2023/03/22 01:17:47;;;;;;;;;;;10.20;99.90;;;;;;5072657;28;19913;-57
2023/03/22 01:20:13;;;;;;;;;;;10.20;99.90;;;;;;5076955;28;20290;-58
2023/03/22 01:22:38;;;;;;;;;;;10.20;99.90;;;;;;5091636;28;20370;-57
2023/03/22 01:25:04;;;;;;;;;;;10.10;99.90;;;;;;5087403;28;19909;-57
2023/03/22 01:27:30;;;;;;;;;;;10.20;99.90;;;;;;5072789;28;19914;-58
2023/03/22 01:29:56;;;;;;;;;;;10.10;99.90;;;;;;5071709;28;19970;-58
2023/03/22 01:32:22;;;;;;;;;;;10.10;99.90;;;;;;5072714;28;20339;-58
2023/03/22 01:34:47;;;;;;;;;;;10.10;99.90;;;;;;5071932;28;19908;-58
2023/03/22 01:37:12;;;;;;;;;;;10.10;99.90;;;;;;5072549;28;19915;-58
2023/03/22 01:39:38;;;;;;;;;;;10.10;99.90;;;;;;5072498;28;19908;-58
2023/03/22 01:42:04;;;;;;;;;;;10.10;99.90;;;;;;5071655;28;20035;-58
2023/03/22 01:44:30;;;;;;;;;;;10.10;99.90;;;;;;5072352;28;19986;-58
2023/03/22 01:46:55;;;;;;;;;;;10.10;99.90;;;;;;5072608;28;19913;-58
2023/03/22 01:49:26;;;;;;;;;;;10.10;99.90;;;;;;5071698;28;19954;-57
2023/03/22 01:51:53;;;;;;;;;;;10.10;99.90;;;;;;5072394;28;19913;-58
2023/03/22 01:54:25;;;;;;;;;;;10.10;99.90;;;;;;5072563;28;19999;-58
2023/03/22 01:56:51;;;;;;;;;;;10.10;99.90;;;;;;5071601;28;19990;-58
2023/03/22 01:59:16;;;;;;;;;;;10.10;99.90;;;;;;5072326;28;20363;-58
2023/03/22 02:01:45;;;;;;;;;;;10.10;99.90;;;;;;5071758;28;19921;-58
2023/03/22 02:04:15;;;;;;;;;;;10.10;99.90;;;;;;5071503;28;19919;-58
2023/03/22 02:06:41;;;;;;;;;;;10.10;99.90;;;;;;5072220;28;19912;-57
2023/03/22 02:09:08;;;;;;;;;;;10.10;99.90;;;;;;5072282;28;20244;-57
2023/03/22 02:11:37;;;;;;;;;;;10.10;99.90;;;;;;5071429;28;20367;-58
2023/03/22 02:14:08;;;;;;;;;;;10.10;99.90;;;;;;5071985;28;19962;-58
2023/03/22 02:16:37;;;;;;;;;;;10.00;99.90;;;;;;5072380;28;19916;-57
2023/03/22 02:19:21;;;;;;;;;;;10.10;99.90;;;;;;5080779;28;19920;-58
2023/03/22 02:22:08;;;;;;;;;;;10.10;99.90;;;;;;5090372;28;20015;-58
2023/03/22 02:24:44;;;;;;;;;;;10.10;99.90;;;;;;5090825;28;20078;-58
2023/03/22 02:27:28;;;;;;;;;;;10.10;99.90;;;;;;5092182;28;19916;-58
2023/03/22 02:30:12;;;;;;;;;;;10.10;99.90;;;;;;5091943;28;19908;-58
2023/03/22 02:32:40;;;;;;;;;;;10.10;99.90;;;;;;5091481;28;20367;-58
2023/03/22 02:35:20;;;;;;;;;;;10.10;99.90;;;;;;5091896;28;19908;-57
2023/03/22 02:38:01;;;;;;;;;;;10.10;99.90;;;;;;5093791;28;20302;-58
2023/03/22 02:40:30;;;;;;;;;;;10.10;99.90;;;;;;5095134;28;19912;-57
2023/03/22 02:42:59;;;;;;;;;;;10.10;99.90;;;;;;5095574;28;20442;-58
2023/03/22 02:45:26;;;;;;;;;;;10.10;99.90;;;;;;5095096;28;19912;-58
2023/03/22 02:48:01;;;;;;;;;;;10.10;99.90;;;;;;5095718;28;20105;-58
2023/03/22 02:50:29;;;;;;;;;;;10.00;99.90;;;;;;5095424;28;19999;-57
2023/03/22 02:52:57;;;;;;;;;;;10.00;99.90;;;;;;5094751;28;19950;-58
2023/03/22 02:55:29;;;;;;;;;;;10.00;99.90;;;;;;5095526;28;19908;-59
2023/03/22 02:58:06;;;;;;;;;;;10.00;99.90;;;;;;5095139;28;20295;-58
2023/03/22 03:00:32;;;;;;;;;;;10.00;99.90;;;;;;5094741;28;20423;-59
2023/03/22 03:03:01;;;;;;;;;;;9.90;99.90;;;;;;5094934;28;20363;-58
2023/03/22 03:05:29;;;;;;;;;;;10.00;99.90;;;;;;5095353;28;19908;-59
2023/03/22 03:07:57;;;;;;;;;;;9.90;99.90;;;;;;5094470;28;19915;-58
2023/03/22 03:10:23;;;;;;;;;;;9.90;99.90;;;;;;5095583;28;19908;-58
2023/03/22 03:12:48;;;;;;;;;;;9.90;99.90;;;;;;5095079;28;20255;-59
2023/03/22 03:15:17;;;;;;;;;;;9.90;99.90;;;;;;5094618;28;19908;-58
2023/03/22 03:17:51;;;;;;;;;;;9.90;99.90;;;;;;5094245;28;19908;-59
2023/03/22 03:20:20;;;;;;;;;;;9.90;99.90;;;;;;5074475;28;19918;-58
2023/03/22 03:22:46;;;;;;;;;;;9.90;99.90;;;;;;5074814;28;20372;-58
2023/03/22 03:25:27;;;;;;;;;;;9.90;99.90;;;;;;5074505;28;19908;-59
2023/03/22 03:28:00;;;;;;;;;;;9.80;99.90;;;;;;5073899;28;19919;-58
2023/03/22 03:30:32;;;;;;;;;;;9.80;99.90;;;;;;5074806;28;19999;-58
2023/03/22 03:32:59;;;;;;;;;;;9.80;99.90;;;;;;5074438;28;19919;-59
2023/03/22 03:35:45;;;;;;;;;;;9.80;99.90;;;;;;5073851;28;19908;-58
2023/03/22 03:38:12;;;;;;;;;;;9.80;99.90;;;;;;5073733;28;19912;-59
2023/03/22 03:40:42;;;;;;;;;;;9.80;99.90;;;;;;5074422;28;19913;-58
2023/03/22 03:43:08;;;;;;;;;;;9.70;99.90;;;;;;5073606;28;19917;-58
2023/03/22 03:45:34;;;;;;;;;;;9.70;99.90;;;;;;5074412;28;19915;-58
2023/03/22 03:48:02;;;;;;;;;;;9.70;99.90;;;;;;5073737;28;19954;-59
2023/03/22 03:50:28;;;;;;;;;;;9.70;99.90;;;;;;5073563;28;20287;-59
2023/03/22 03:52:54;;;;;;;;;;;9.70;99.90;;;;;;5074215;28;19916;-58
2023/03/22 03:55:21;;;;;;;;;;;9.70;99.90;;;;;;5074186;28;20355;-58
2023/03/22 03:57:46;;;;;;;;;;;9.70;99.90;;;;;;5073280;28;20398;-58
2023/03/22 04:00:15;;;;;;;;;;;9.70;99.90;;;;;;5074090;28;19912;-58
2023/03/22 04:02:41;;;;;;;;;;;9.60;99.90;;;;;;5072814;28;19928;-58
2023/03/22 04:05:07;;;;;;;;;;;9.60;99.90;;;;;;5074007;28;19909;-58
2023/03/22 04:07:33;;;;;;;;;;;9.60;99.90;;;;;;5074145;28;19909;-58
2023/03/22 04:09:58;;;;;;;;;;;9.70;99.90;;;;;;5073055;28;19909;-58
2023/03/22 04:12:24;;;;;;;;;;;9.70;99.90;;;;;;5076869;28;19913;-58
2023/03/22 04:14:49;;;;;;;;;;;9.70;99.90;;;;;;5085233;28;20371;-58
2023/03/22 04:17:15;;;;;;;;;;;9.70;99.90;;;;;;5075194;28;20378;-58
2023/03/22 04:19:41;;;;;;;;;;;9.70;99.90;;;;;;5073537;28;19912;-59
2023/03/22 04:22:13;;;;;;;;;;;9.70;99.90;;;;;;5079505;28;19920;-58
2023/03/22 04:24:42;;;;;;;;;;;9.70;99.90;;;;;;5093109;28;19908;-58
2023/03/22 04:27:07;;;;;;;;;;;9.70;99.90;;;;;;5093676;28;19908;-58
2023/03/22 04:29:35;;;;;;;;;;;9.80;99.90;;;;;;5094066;28;20333;-59
2023/03/22 04:32:01;;;;;;;;;;;9.80;99.90;;;;;;5092897;28;19912;-57
2023/03/22 04:34:26;;;;;;;;;;;9.80;99.90;;;;;;5094020;28;19912;-59
2023/03/22 04:36:53;;;;;;;;;;;9.90;99.90;;;;;;5093731;28;19908;-58
2023/03/22 04:39:18;;;;;;;;;;;9.90;99.90;;;;;;5092895;28;19908;-58
2023/03/22 04:41:44;;;;;;;;;;;9.90;99.90;;;;;;5093425;28;19923;-58
2023/03/22 04:44:09;;;;;;;;;;;9.90;99.90;;;;;;5093392;28;20394;-58
2023/03/22 04:46:35;;;;;;;;;;;9.90;99.90;;;;;;5092362;28;19913;-59
2023/03/22 04:49:02;;;;;;;;;;;10.00;99.90;;;;;;5093439;28;19953;-58
2023/03/22 04:51:27;;;;;;;;;;;10.00;99.90;;;;;;5088260;28;20275;-58
2023/03/22 04:53:53;;;;;;;;;;;10.10;99.90;;;;;;5072159;28;19912;-59
2023/03/22 04:56:19;;;;;;;;;;;10.00;99.90;;;;;;5073012;28;19913;-59
2023/03/22 04:58:45;;;;;;;;;;;10.10;99.90;;;;;;5072274;28;19919;-58
2023/03/22 05:01:11;;;;;;;;;;;10.10;99.90;;;;;;5072660;28;19925;-59
2023/03/22 05:03:37;;;;;;;;;;;10.10;99.90;;;;;;5073025;28;20291;-58
2023/03/22 05:06:05;;;;;;;;;;;10.10;99.90;;;;;;5072133;28;20382;-58
2023/03/22 05:08:31;;;;;;;;;;;10.10;99.90;;;;;;5072858;28;19938;-59
2023/03/22 05:10:57;;;;;;;;;;;10.10;99.90;;;;;;5073078;28;19912;-58
2023/03/22 05:13:26;;;;;;;;;;;10.10;99.90;;;;;;5072173;28;19909;-58
2023/03/22 05:15:51;;;;;;;;;;;10.00;99.90;;;;;;5082324;28;19920;-57
2023/03/22 05:18:19;;;;;;;;;;;10.00;99.90;;;;;;5093212;28;19908;-59
2023/03/22 05:20:45;;;;;;;;;;;10.10;99.90;;;;;;5092019;28;19916;-59
2023/03/22 05:23:11;;;;;;;;;;;10.00;99.90;;;;;;5092793;28;19969;-58
2023/03/22 05:25:37;;;;;;;;;;;10.00;99.90;;;;;;5092889;28;19912;-59
2023/03/22 05:28:02;;;;;;;;;;;10.10;99.90;;;;;;5092046;28;19954;-59
2023/03/22 05:30:28;;;;;;;;;;;10.10;99.90;;;;;;5092855;28;20389;-57
2023/03/22 05:32:58;;;;;;;;;;;10.10;99.90;;;;;;5092786;28;19908;-58
2023/03/22 05:35:24;;;;;;;;;;;10.10;99.90;;;;;;5092119;28;19908;-58
2023/03/22 05:37:50;;;;;;;;;;;10.10;99.90;;;;;;5092729;28;20084;-58
2023/03/22 05:40:16;;;;;;;;;;;10.10;99.90;;;;;;5092738;28;19915;-58
2023/03/22 05:42:42;;;;;;;;;;;10.10;99.90;;;;;;5091658;28;19916;-58
2023/03/22 05:45:08;;;;;;;;;;;10.00;99.90;;;;;;5088820;28;19991;-59
2023/03/22 05:47:33;;;;;;;;;;;10.00;99.90;;;;;;5072582;28;19916;-59
2023/03/22 05:49:59;;;;;;;;;;;10.00;99.90;;;;;;5071907;28;20325;-58
2023/03/22 05:52:25;;;;;;;;;;;10.10;99.90;;;;;;5072375;28;19908;-58
2023/03/22 05:54:50;;;;;;;;;;;10.00;99.90;;;;;;5072327;28;19948;-58
2023/03/22 05:57:16;;;;;;;;;;;10.10;99.90;;;;;;5071421;28;19912;-58
2023/03/22 05:59:41;;;;;;;;;;;10.10;99.90;;;;;;5072234;28;19995;-59
2023/03/22 06:02:07;;;;;;;;;;;10.10;99.90;;;;;;5071294;28;19939;-58
2023/03/22 06:04:32;;;;;;;;;;;10.10;99.90;;;;;;5072404;28;19909;-58
2023/03/22 06:06:58;;;;;;;;;;;10.10;99.90;;;;;;5072177;28;19913;-58
2023/03/22 06:09:23;;;;;;;;;;;10.10;99.90;;;;;;5071620;28;20323;-58
2023/03/22 06:11:49;;;;;;;;;;;10.10;99.90;;;;;;5074149;28;20377;-59
2023/03/22 06:14:14;;;;;;;;;;;10.10;99.90;;;;;;5076063;28;20003;-58
2023/03/22 06:16:40;;;;;;;;;;;10.10;99.90;;;;;;5091000;28;20275;-59
2023/03/22 06:19:05;;;;;;;;;;;10.10;99.90;;;;;;5096399;28;19927;-59
2023/03/22 06:21:31;;;;;;;;;;;10.20;99.90;;;;;;5096055;28;20026;-59
2023/03/22 06:23:56;;;;;;;;;;;10.10;99.90;;;;;;5095346;28;19912;-57
2023/03/22 06:26:22;;;;;;;;;;;10.20;99.90;;;;;;5096227;28;19915;-58
2023/03/22 06:28:47;;;;;;;;;;;10.20;99.90;;;;;;5096102;28;19998;-58
2023/03/22 06:31:13;;;;;;;;;;;10.20;99.90;;;;;;5095538;28;20423;-58
2023/03/22 06:33:38;;;;;;;;;;;10.20;99.90;;;;;;5096063;28;19908;-59
2023/03/22 06:36:04;;;;;;;;;;;10.30;99.90;;;;;;5095782;28;20271;-59
2023/03/22 06:38:29;;;;;;;;;;;10.30;99.90;;;;;;5095057;28;19915;-59
2023/03/22 06:40:55;;;;;;;;;;;10.30;99.90;;;;;;5096066;28;19915;-59
2023/03/22 06:43:20;;;;;;;;;;;10.40;99.90;;;;;;5095849;28;19921;-58
2023/03/22 06:45:46;;;;;;;;;;;10.40;99.90;;;;;;5094781;28;19912;-59
2023/03/22 06:48:12;;;;;;;;;;;10.40;99.90;;;;;;5096144;28;20367;-58
2023/03/22 06:50:38;;;;;;;;;;;10.50;99.90;;;;;;5090786;28;19944;-59
2023/03/22 06:53:06;;;;;;;;;;;10.60;99.90;;;;;;5074687;28;19951;-59
2023/03/22 06:55:33;;;;;;;;;;;10.50;99.90;;;;;;5075417;28;19923;-58
2023/03/22 06:58:01;;;;;;;;;;;10.60;99.90;;;;;;5086143;28;19915;-60
2023/03/22 07:00:27;;;;;;;;;;;10.60;99.90;;;;;;5087006;28;19923;-59
2023/03/22 07:02:53;;;;;;;;;;;10.70;99.90;;;;;;5069302;28;19920;-60
2023/03/22 07:05:19;;;;;;;;;;;10.70;99.90;;;;;;5065656;28;19920;-59
2023/03/22 07:07:45;;;;;;;;;;;10.70;99.90;;;;;;5057106;28;19920;-58
2023/03/22 07:10:10;;;;;;;;;;;10.80;99.90;;;;;;5072990;28;20027;-59
2023/03/22 07:12:36;;;;;;;;;;;10.80;99.90;;;;;;5088394;28;19995;-58
2023/03/22 07:15:01;;;;;;;;;;;10.80;99.90;;;;;;5092923;28;20318;-59
2023/03/22 07:17:27;;;;;;;;;;;10.90;99.90;;;;;;5091363;28;20289;-59
2023/03/22 07:19:52;;;;;;;;;;;10.90;99.90;;;;;;5091461;28;19961;-58
2023/03/22 07:22:21;;;;;;;;;;;11.00;99.90;;;;;;5092763;28;19923;-58
2023/03/22 07:24:47;;;;;;;;;;;11.00;99.90;;;;;;5093056;28;20383;-58
2023/03/22 07:27:13;;;;;;;;;;;11.10;99.90;;;;;;5084818;28;19916;-58
2023/03/22 07:29:38;;;;;;;;;;;11.10;99.90;;;;;;5089501;28;19966;-59
2023/03/22 07:32:04;;;;;;;;;;;11.10;99.90;;;;;;5093654;28;19914;-58
2023/03/22 07:34:30;;;;;;;;;;;11.10;99.90;;;;;;5089934;28;20270;-58
2023/03/22 07:36:58;;;;;;;;;;;11.10;99.90;;;;;;5093573;28;19908;-59
2023/03/22 07:39:23;;;;;;;;;;;11.20;99.90;;;;;;5091915;28;20378;-58
2023/03/22 07:41:49;;;;;;;;;;;11.20;99.90;;;;;;5091764;28;19916;-57
2023/03/22 07:44:15;;;;;;;;;;;11.20;99.90;;;;;;5093256;28;20424;-58
2023/03/22 07:46:40;;;;;;;;;;;11.20;99.90;;;;;;5093067;28;19908;-58
2023/03/22 07:49:06;;;;;;;;;;;11.20;99.90;;;;;;5092270;28;19916;-56
2023/03/22 07:51:31;;;;;;;;;;;11.30;99.90;;;;;;5093053;28;19908;-57
2023/03/22 07:53:57;;;;;;;;;;;11.30;99.90;;;;;;5093035;28;19966;-58
2023/03/22 07:56:22;;;;;;;;;;;11.30;99.90;;;;;;5066924;28;20279;-58
2023/03/22 07:58:48;;;;;;;;;;;11.40;99.90;;;;;;5066124;28;19931;-57
2023/03/22 08:01:13;;;;;;;;;;;11.40;99.90;;;;;;5068744;28;20019;-57
2023/03/22 08:03:39;;;;;;;;;;;11.40;99.90;;;;;;5090976;28;20061;-57
2023/03/22 08:06:06;;;;;;;;;;;11.30;99.90;;;;;;5082699;28;19920;-57
2023/03/22 08:08:32;;;;;;;;;;;11.30;99.90;;;;;;5076071;28;19935;-57
2023/03/22 08:10:58;;;;;;;;;;;11.30;99.90;;;;;;5073047;28;20355;-58
2023/03/22 08:13:24;;;;;;;;;;;11.30;99.90;;;;;;5073917;28;19909;-57
2023/03/22 08:15:50;;;;;;;;;;;11.30;99.90;;;;;;5072474;28;19917;-57
2023/03/22 08:18:15;;;;;;;;;;;11.20;99.90;;;;;;5071646;28;19916;-57
2023/03/22 08:20:44;;;;;;;;;;;11.30;99.90;;;;;;5072985;28;19923;-57
2023/03/22 08:23:14;;;;;;;;;;;11.30;99.90;;;;;;5070368;28;22284;-57
2023/03/22 08:25:40;;;;;;;;;;;11.30;99.90;;;;;;5083800;28;19913;-57
2023/03/22 08:28:06;;;;;;;;;;;11.30;99.90;;;;;;5080582;28;20002;-57
2023/03/22 08:30:31;;;;;;;;;;;11.30;99.90;;;;;;5092937;28;19935;-57
2023/03/22 08:32:57;;;;;;;;;;;11.30;99.90;;;;;;5093486;28;20317;-58
2023/03/22 08:35:22;;;;;;;;;;;11.40;99.90;;;;;;5093319;28;19962;-57
2023/03/22 08:37:51;;;;;;;;;;;11.50;99.90;;;;;;5074663;28;20165;-57
2023/03/22 08:40:17;;;;;;;;;;;11.50;99.90;;;;;;5079884;28;20375;-56
2023/03/22 08:42:42;;;;;;;;;;;11.50;99.90;;;;;;5086720;28;19924;-57
2023/03/22 08:45:09;;;;;;;;;;;11.50;99.90;;;;;;5072390;28;19948;-58
2023/03/22 08:47:34;;;;;;;;;;;11.50;99.90;;;;;;5092467;28;20516;-57
2023/03/22 08:50:00;;;;;;;;;;;11.50;99.90;;;;;;5093280;28;20089;-57
2023/03/22 08:52:25;;;;;;;;;;;11.60;99.90;;;;;;5092679;28;19914;-57
2023/03/22 08:54:52;;;;;;;;;;;11.60;99.90;;;;;;5089820;28;19919;-58
2023/03/22 08:57:20;;;;;;;;;;;11.70;99.90;;;;;;5079584;28;19913;-57
2023/03/22 08:59:45;;;;;;;;;;;11.70;99.90;;;;;;5088534;28;19912;-59
2023/03/22 09:02:11;;;;;;;;;;;11.70;99.90;;;;;;5073560;28;20321;-58
2023/03/22 09:04:37;;;;;;;;;;;11.80;99.90;;;;;;5083103;28;19912;-58
2023/03/22 09:07:02;;;;;;;;;;;11.90;99.90;;;;;;5092378;28;19995;-57
2023/03/22 09:09:28;;;;;;;;;;;11.90;99.90;;;;;;5086615;28;19909;-57
2023/03/22 09:11:53;;;;;;;;;;;12.00;99.90;;;;;;5074506;28;19920;-56
2023/03/22 09:14:19;;;;;;;;;;;12.10;99.90;;;;;;5082217;28;19966;-57
2023/03/22 09:16:45;;;;;;;;;;;12.20;99.90;;;;;;5080220;28;19913;-57
2023/03/22 09:19:11;;;;;;;;;;;12.20;99.90;;;;;;5091918;28;19908;-57
2023/03/22 09:21:36;;;;;;;;;;;12.20;99.90;;;;;;5090565;28;19927;-57
2023/03/22 09:24:02;;;;;;;;;;;12.30;99.90;;;;;;5092910;28;20256;-57
2023/03/22 09:26:28;;;;;;;;;;;12.30;99.90;;;;;;5090143;28;19974;-56
2023/03/22 09:28:53;;;;;;;;;;;12.40;99.90;;;;;;5077794;28;20419;-57
2023/03/22 09:31:19;;;;;;;;;;;12.40;99.90;;;;;;5085345;28;19912;-58
2023/03/22 09:33:45;;;;;;;;;;;12.40;99.90;;;;;;5089749;28;20362;-57
2023/03/22 09:36:13;;;;;;;;;;;12.40;99.90;;;;;;5092802;28;19912;-58
2023/03/22 09:38:40;;;;;;;;;;;12.30;99.90;;;;;;5092575;28;19914;-57
2023/03/22 09:41:07;;;;;;;;;;;12.40;99.90;;;;;;5091677;28;20369;-57
2023/03/22 09:43:35;;;;;;;;;;;12.30;99.90;;;;;;5092674;28;19908;-59
2023/03/22 09:46:02;;;;;;;;;;;12.30;99.90;;;;;;5076160;28;19966;-58
2023/03/22 09:48:36;;;;;;;;;;;12.30;99.90;;;;;;5070701;28;20011;-58
2023/03/22 09:51:02;;;;;;;;;;;12.30;99.90;;;;;;5079194;28;19919;-58
2023/03/22 09:53:28;;;;;;;;;;;12.30;99.90;;;;;;5085973;28;19919;-56
2023/03/22 09:55:54;;;;;;;;;;;12.30;99.90;;;;;;5084602;28;19912;-57
2023/03/22 09:58:40;;;;;;;;;;;12.30;99.90;;;;;;5082622;28;19966;-55
2023/03/22 10:01:13;;;;;;;;;;;12.20;99.90;;;;;;5078726;28;19916;-57
2023/03/22 10:03:52;;;;;;;;;;;12.30;99.90;;;;;;5076288;28;20004;-57
2023/03/22 10:06:19;;;;;;;;;;;12.20;99.90;;;;;;5076380;28;19919;-57
2023/03/22 10:09:03;;;;;;;;;;;12.10;99.90;;;;;;5075255;28;20272;-57
2023/03/22 10:11:47;;;;;;;;;;;12.10;99.90;;;;;;5076240;28;19965;-58
2023/03/22 10:14:18;;;;;;;;;;;12.10;99.90;;;;;;5077186;28;19999;-56
2023/03/22 10:16:44;;;;;;;;;;;12.00;99.90;;;;;;5075286;28;20064;-57
2023/03/22 10:19:24;;;;;;;;;;;11.90;99.90;;;;;;5076008;28;20343;-56
2023/03/22 10:21:50;;;;;;;;;;;11.90;99.90;;;;;;5075805;28;19939;-57
2023/03/22 10:24:23;;;;;;;;;;;11.90;99.90;;;;;;5075204;28;19909;-57
2023/03/22 10:26:48;;;;;;;;;;;11.90;99.90;;;;;;5075822;28;20282;-57
2023/03/22 10:29:21;;;;;;;;;;;11.90;99.90;;;;;;5085151;28;19912;-57
2023/03/22 10:31:47;;;;;;;;;;;11.80;99.90;;;;;;5096058;28;19912;-57
2023/03/22 10:34:29;;;;;;;;;;;11.80;99.90;;;;;;5096328;28;19908;-57
2023/03/22 10:36:59;;;;;;;;;;;11.80;99.90;;;;;;5095372;28;19912;-58
2023/03/22 10:39:27;;;;;;;;;;;11.80;99.90;;;;;;5096894;28;20421;-57
2023/03/22 10:41:53;;;;;;;;;;;11.70;99.90;;;;;;5096466;28;19916;-57
2023/03/22 10:44:19;;;;;;;;;;;11.70;99.90;;;;;;5095174;28;19908;-56
2023/03/22 10:46:47;;;;;;;;;;;11.60;99.90;;;;;;5076097;28;19909;-57
2023/03/22 10:49:16;;;;;;;;;;;11.50;99.90;;;;;;5076135;28;20019;-57
2023/03/22 10:51:44;;;;;;;;;;;11.40;99.90;;;;;;5080500;28;19913;-57
2023/03/22 10:54:14;;;;;;;;;;;11.40;99.90;;;;;;5083211;28;19912;-58
2023/03/22 10:56:40;;;;;;;;;;;11.40;99.90;;;;;;5075790;28;19916;-57
2023/03/22 10:59:05;;;;;;;;;;;11.40;99.90;;;;;;5079048;28;20441;-56
2023/03/22 11:01:32;;;;;;;;;;;11.40;99.90;;;;;;5081223;28;19921;-57
2023/03/22 11:04:04;;;;;;;;;;;11.40;99.90;;;;;;5075454;28;19916;-58
2023/03/22 11:06:35;;;;;;;;;;;11.40;99.90;;;;;;5075686;28;19912;-56
2023/03/22 11:09:10;;;;;;;;;;;11.40;99.90;;;;;;5076905;28;19916;-57
2023/03/22 11:11:46;;;;;;;;;;;11.50;99.90;;;;;;5089380;28;19972;-57
2023/03/22 11:14:13;;;;;;;;;;;11.50;99.90;;;;;;5096507;28;19950;-58
2023/03/22 11:16:58;;;;;;;;;;;11.40;99.90;;;;;;5083375;28;20001;-57
2023/03/22 11:19:24;;;;;;;;;;;11.50;99.90;;;;;;5092783;28;19908;-57
2023/03/22 11:21:50;;;;;;;;;;;11.50;99.90;;;;;;5076606;28;19916;-57
2023/03/22 11:24:16;;;;;;;;;;;11.40;99.90;;;;;;5095908;28;19915;-58
2023/03/22 11:26:59;;;;;;;;;;;11.40;99.90;;;;;;5095287;28;19908;-57
2023/03/22 11:29:25;;;;;;;;;;;11.30;99.90;;;;;;5076436;28;19916;-56
2023/03/22 11:31:53;;;;;;;;;;;11.40;99.90;;;;;;5074519;28;19908;-57
2023/03/22 11:34:20;;;;;;;;;;;11.30;99.90;;;;;;5081090;28;19961;-56
2023/03/22 11:36:51;;;;;;;;;;;11.30;99.90;;;;;;5095425;28;20014;-57
2023/03/22 11:39:17;;;;;;;;;;;11.30;99.90;;;;;;5095556;28;19912;-58
2023/03/22 11:41:44;;;;;;;;;;;11.30;99.90;;;;;;5094680;28;19958;-56
2023/03/22 11:44:11;;;;;;;;;;;11.40;99.90;;;;;;5091107;28;19939;-57
2023/03/22 11:46:37;;;;;;;;;;;11.50;99.90;;;;;;5075299;28;19919;-56
2023/03/22 11:49:06;;;;;;;;;;;11.50;99.90;;;;;;5074801;28;19908;-57
2023/03/22 11:51:33;;;;;;;;;;;11.50;99.90;;;;;;5079666;28;19912;-56
2023/03/22 11:54:15;;;;;;;;;;;11.50;99.90;;;;;;5096797;28;19912;-57
2023/03/22 11:56:42;;;;;;;;;;;11.50;99.90;;;;;;5076648;28;20011;-56
2023/03/22 11:59:29;;;;;;;;;;;11.60;99.90;;;;;;5081729;28;19913;-57
2023/03/22 12:02:16;;;;;;;;;;;11.60;99.90;;;;;;5073842;28;20348;-56
2023/03/22 12:04:43;;;;;;;;;;;11.60;99.90;;;;;;5087177;28;20406;-58
2023/03/22 12:07:12;;;;;;;;;;;11.60;99.90;;;;;;5089344;28;20406;-57
2023/03/22 12:09:38;;;;;;;;;;;11.60;99.90;;;;;;5091347;28;19912;-56
2023/03/22 12:12:05;;;;;;;;;;;11.60;99.90;;;;;;5078670;28;19912;-56
2023/03/22 12:14:49;;;;;;;;;;;11.60;99.90;;;;;;5079325;28;19916;-56
2023/03/22 12:17:21;;;;;;;;;;;11.60;99.90;;;;;;5083052;28;19919;-57
2023/03/22 12:19:58;;;;;;;;;;;11.50;99.90;;;;;;5073667;28;20393;-57
2023/03/22 12:22:27;;;;;;;;;;;11.50;99.90;;;;;;5080830;28;19920;-55
2023/03/22 12:24:52;;;;;;;;;;;11.60;99.90;;;;;;5080203;28;20006;-58
2023/03/22 12:27:21;;;;;;;;;;;11.50;99.90;;;;;;5082966;28;19995;-58
2023/03/22 12:30:03;;;;;;;;;;;11.50;99.90;;;;;;5075588;28;20170;-57
2023/03/22 12:32:31;;;;;;;;;;;11.40;99.90;;;;;;5082427;28;19912;-58
2023/03/22 12:34:57;;;;;;;;;;;11.40;99.90;;;;;;5093631;28;19962;-56
2023/03/22 12:37:31;;;;;;;;;;;11.40;99.90;;;;;;5081124;28;19908;-57
2023/03/22 12:39:57;;;;;;;;;;;11.40;99.90;;;;;;5073263;28;19916;-57
2023/03/22 12:42:26;;;;;;;;;;;11.40;99.90;;;;;;5082155;28;20432;-57
2023/03/22 12:44:57;;;;;;;;;;;11.40;99.90;;;;;;5078275;28;20321;-58
2023/03/22 12:47:30;;;;;;;;;;;11.30;99.90;;;;;;5073068;28;20367;-57
2023/03/22 12:50:01;;;;;;;;;;;11.40;99.90;;;;;;5073050;28;19909;-56
2023/03/22 12:52:46;;;;;;;;;;;11.30;99.90;;;;;;5074159;28;19909;-57
2023/03/22 12:55:26;;;;;;;;;;;11.40;99.90;;;;;;5073670;28;19950;-58
2023/03/22 12:57:53;;;;;;;;;;;11.40;99.90;;;;;;5073129;28;19908;-58
2023/03/22 13:00:27;;;;;;;;;;;11.40;99.90;;;;;;5073514;28;19908;-57
2023/03/22 13:02:58;;;;;;;;;;;11.40;99.90;;;;;;5073371;28;19921;-57
2023/03/22 13:05:26;;;;;;;;;;;11.40;99.90;;;;;;5073237;28;19908;-56
2023/03/22 13:07:52;;;;;;;;;;;11.30;99.90;;;;;;5055665;28;20367;-57
2023/03/22 13:10:35;;;;;;;;;;;11.30;99.90;;;;;;5073419;28;19912;-57
2023/03/22 13:13:13;;;;;;;;;;;11.20;99.90;;;;;;5072836;28;19923;-56
2023/03/22 13:15:40;;;;;;;;;;;11.20;99.90;;;;;;5073839;28;19909;-57
2023/03/22 13:18:22;;;;;;;;;;;11.20;99.90;;;;;;5082267;28;20061;-58
2023/03/22 13:21:06;;;;;;;;;;;11.10;99.90;;;;;;5075130;28;19970;-58
2023/03/22 13:23:32;;;;;;;;;;;11.10;99.90;;;;;;5073317;28;20356;-56
2023/03/22 13:25:58;;;;;;;;;;;11.10;99.90;;;;;;5073023;28;20034;-58
2023/03/22 13:28:28;;;;;;;;;;;11.10;99.90;;;;;;5073613;28;19936;-57
2023/03/22 13:30:55;;;;;;;;;;;11.10;99.90;;;;;;5073369;28;20015;-56
2023/03/22 13:33:23;;;;;;;;;;;11.10;99.90;;;;;;5072906;28;20382;-57
2023/03/22 13:35:57;;;;;;;;;;;11.10;99.90;;;;;;5074263;28;19956;-57
2023/03/22 13:38:31;;;;;;;;;;;11.10;99.90;;;;;;5073376;28;19913;-57
2023/03/22 13:41:00;;;;;;;;;;;11.10;99.90;;;;;;5072863;28;19982;-58
2023/03/22 13:43:49;;;;;;;;;;;11.10;99.90;;;;;;5073091;28;20283;-58
2023/03/22 13:46:20;;;;;;;;;;;11.10;99.90;;;;;;5067110;28;19908;-57
2023/03/22 13:48:46;;;;;;;;;;;11.10;99.90;;;;;;5073323;28;19916;-58
2023/03/22 13:51:17;;;;;;;;;;;11.10;99.90;;;;;;5073283;28;19909;-58
2023/03/22 13:54:06;;;;;;;;;;;11.00;99.90;;;;;;5072630;28;19908;-58
2023/03/22 13:56:32;;;;;;;;;;;11.00;99.90;;;;;;5063261;28;20263;-57
2023/03/22 13:58:58;;;;;;;;;;;11.00;99.90;;;;;;5073345;28;19916;-58
2023/03/22 14:01:27;;;;;;;;;;;11.00;99.90;;;;;;5072320;28;19928;-57
2023/03/22 14:03:55;;;;;;;;;;;11.00;99.90;;;;;;5087150;28;19924;-58
2023/03/22 14:06:30;;;;;;;;;;;11.00;99.90;;;;;;5091701;28;19912;-58
2023/03/22 14:08:58;;;;;;;;;;;11.00;99.90;;;;;;5091217;28;20062;-58
2023/03/22 14:11:42;;;;;;;;;;;10.90;99.90;;;;;;5091916;28;19961;-58
2023/03/22 14:14:40;;;;;;;;;;;10.90;99.90;;;;;;5091482;28;19951;-58
2023/03/22 14:17:16;;;;;;;;;;;11.00;99.90;;;;;;5068652;28;20327;-58
2023/03/22 14:19:42;;;;;;;;;;;10.90;99.90;;;;;;5091918;28;20355;-58
2023/03/22 14:22:12;;;;;;;;;;;10.90;99.90;;;;;;5091300;28;19927;-57
2023/03/22 14:24:38;;;;;;;;;;;10.90;99.90;;;;;;5090644;28;19944;-57
2023/03/22 14:27:05;;;;;;;;;;;10.90;99.90;;;;;;5090942;28;19947;-57